Mc Kinnon, Wyoming
Current Conditions -  °F | °C
As of 11:35 PM on Friday 28 Nov 2014 (Local Time) from KFBR Reporting Station
Clear Clear  
Wind Chill: 37°   Ceiling: Unl
Heat Index: 44°   Visibility: 10mi
Dew Point: 14°   Wind: 15mph
Humidity: 30%   Direction: 230°SW
Pressure: 29.82"   Gusts: 22mph
Location:  41.275°N, 109.786°W
Report Text: KFBR 290635Z AUTO 23013G19KT 10SM CLR 07/M10 A2982 RMK AO2 T00671098
Loading
Personal Weather Stations






























Interactive Weather Map New forecast layout! Learn more

10-Day Weather Forecast

Advertisements
Track Severe Weather on mobile